sensor_id;sensor_type;location;lat;lon;timestamp;temperature;humidity
8591;DHT22;4333;48.322;14.340;2023-03-03T00:01:34;2.70;63.20
8591;DHT22;4333;48.322;14.340;2023-03-03T00:04:02;2.70;64.50
8591;DHT22;4333;48.322;14.340;2023-03-03T00:06:28;2.60;67.50
8591;DHT22;4333;48.322;14.340;2023-03-03T00:08:56;2.50;69.00
8591;DHT22;4333;48.322;14.340;2023-03-03T00:11:22;2.50;69.30
8591;DHT22;4333;48.322;14.340;2023-03-03T00:13:50;2.60;69.70
8591;DHT22;4333;48.322;14.340;2023-03-03T00:16:30;2.50;69.60
8591;DHT22;4333;48.322;14.340;2023-03-03T00:18:56;2.50;70.70
8591;DHT22;4333;48.322;14.340;2023-03-03T00:21:39;2.40;73.80
8591;DHT22;4333;48.322;14.340;2023-03-03T00:24:20;2.40;75.30
8591;DHT22;4333;48.322;14.340;2023-03-03T00:26:50;2.40;75.90
8591;DHT22;4333;48.322;14.340;2023-03-03T00:29:28;2.40;75.50
8591;DHT22;4333;48.322;14.340;2023-03-03T00:34:44;2.40;76.40
8591;DHT22;4333;48.322;14.340;2023-03-03T00:39:46;2.20;81.20
8591;DHT22;4333;48.322;14.340;2023-03-03T00:42:16;2.10;83.90
8591;DHT22;4333;48.322;14.340;2023-03-03T00:44:47;2.10;85.70
8591;DHT22;4333;48.322;14.340;2023-03-03T00:47:37;2.00;85.50
8591;DHT22;4333;48.322;14.340;2023-03-03T00:52:36;1.90;89.80
8591;DHT22;4333;48.322;14.340;2023-03-03T00:55:03;1.80;91.60
8591;DHT22;4333;48.322;14.340;2023-03-03T00:57:31;1.70;93.00
8591;DHT22;4333;48.322;14.340;2023-03-03T00:59:59;1.70;94.20
8591;DHT22;4333;48.322;14.340;2023-03-03T01:02:27;1.70;93.80
8591;DHT22;4333;48.322;14.340;2023-03-03T01:04:53;1.80;92.70
8591;DHT22;4333;48.322;14.340;2023-03-03T01:07:22;1.70;92.40
8591;DHT22;4333;48.322;14.340;2023-03-03T01:09:50;1.60;93.20
8591;DHT22;4333;48.322;14.340;2023-03-03T01:12:16;1.60;95.00
8591;DHT22;4333;48.322;14.340;2023-03-03T01:14:42;1.60;95.20
8591;DHT22;4333;48.322;14.340;2023-03-03T01:17:10;1.60;95.20
8591;DHT22;4333;48.322;14.340;2023-03-03T01:19:35;1.70;95.90
8591;DHT22;4333;48.322;14.340;2023-03-03T01:22:01;1.70;95.30
8591;DHT22;4333;48.322;14.340;2023-03-03T01:24:27;1.60;96.40
8591;DHT22;4333;48.322;14.340;2023-03-03T01:26:55;1.70;96.50
8591;DHT22;4333;48.322;14.340;2023-03-03T01:29:20;1.80;95.60
8591;DHT22;4333;48.322;14.340;2023-03-03T01:31:46;1.80;95.10
8591;DHT22;4333;48.322;14.340;2023-03-03T01:34:12;1.80;93.80
8591;DHT22;4333;48.322;14.340;2023-03-03T01:36:37;1.80;94.60
8591;DHT22;4333;48.322;14.340;2023-03-03T01:39:06;1.80;95.10
8591;DHT22;4333;48.322;14.340;2023-03-03T01:41:34;1.90;96.40
8591;DHT22;4333;48.322;14.340;2023-03-03T01:44:02;2.10;95.20
8591;DHT22;4333;48.322;14.340;2023-03-03T01:46:34;2.30;93.80
8591;DHT22;4333;48.322;14.340;2023-03-03T01:49:09;2.30;93.90
8591;DHT22;4333;48.322;14.340;2023-03-03T01:51:54;2.30;93.60
8591;DHT22;4333;48.322;14.340;2023-03-03T01:54:28;2.10;91.80
8591;DHT22;4333;48.322;14.340;2023-03-03T01:57:00;2.10;91.00
8591;DHT22;4333;48.322;14.340;2023-03-03T01:59:33;2.10;92.00
8591;DHT22;4333;48.322;14.340;2023-03-03T02:02:00;2.00;92.00
8591;DHT22;4333;48.322;14.340;2023-03-03T02:04:26;1.90;92.60
8591;DHT22;4333;48.322;14.340;2023-03-03T02:06:56;1.80;93.00
8591;DHT22;4333;48.322;14.340;2023-03-03T02:12:27;1.90;96.20
8591;DHT22;4333;48.322;14.340;2023-03-03T02:14:55;1.90;96.80
8591;DHT22;4333;48.322;14.340;2023-03-03T02:17:21;2.00;96.50
8591;DHT22;4333;48.322;14.340;2023-03-03T02:20:06;2.10;96.50
8591;DHT22;4333;48.322;14.340;2023-03-03T02:23:12;2.10;96.70
8591;DHT22;4333;48.322;14.340;2023-03-03T02:28:28;2.20;96.70
8591;DHT22;4333;48.322;14.340;2023-03-03T02:30:55;2.40;92.50
8591;DHT22;4333;48.322;14.340;2023-03-03T02:33:24;2.50;91.90
8591;DHT22;4333;48.322;14.340;2023-03-03T02:35:50;2.50;91.70
8591;DHT22;4333;48.322;14.340;2023-03-03T02:38:29;2.50;92.90
8591;DHT22;4333;48.322;14.340;2023-03-03T02:46:12;2.50;92.50
8591;DHT22;4333;48.322;14.340;2023-03-03T02:48:38;2.50;92.40
8591;DHT22;4333;48.322;14.340;2023-03-03T02:51:10;2.40;92.90
8591;DHT22;4333;48.322;14.340;2023-03-03T02:53:35;2.30;94.10
8591;DHT22;4333;48.322;14.340;2023-03-03T02:56:01;2.20;94.70
8591;DHT22;4333;48.322;14.340;2023-03-03T02:58:29;2.30;95.20
8591;DHT22;4333;48.322;14.340;2023-03-03T03:00:55;2.20;95.50
8591;DHT22;4333;48.322;14.340;2023-03-03T03:03:21;2.20;95.70
8591;DHT22;4333;48.322;14.340;2023-03-03T03:05:47;2.20;96.70
8591;DHT22;4333;48.322;14.340;2023-03-03T03:08:13;2.20;97.50
8591;DHT22;4333;48.322;14.340;2023-03-03T03:10:39;2.20;97.80
8591;DHT22;4333;48.322;14.340;2023-03-03T03:13:05;2.20;98.30
8591;DHT22;4333;48.322;14.340;2023-03-03T03:15:31;2.20;99.00
8591;DHT22;4333;48.322;14.340;2023-03-03T03:17:56;2.10;98.80
8591;DHT22;4333;48.322;14.340;2023-03-03T03:23:45;2.20;95.50
8591;DHT22;4333;48.322;14.340;2023-03-03T03:26:11;2.20;96.30
8591;DHT22;4333;48.322;14.340;2023-03-03T03:28:39;2.20;97.00
8591;DHT22;4333;48.322;14.340;2023-03-03T03:31:08;2.20;96.80
8591;DHT22;4333;48.322;14.340;2023-03-03T03:33:34;2.20;96.40
8591;DHT22;4333;48.322;14.340;2023-03-03T03:36:01;2.20;95.10
8591;DHT22;4333;48.322;14.340;2023-03-03T03:38:29;2.30;94.50
8591;DHT22;4333;48.322;14.340;2023-03-03T03:40:56;2.40;94.40
8591;DHT22;4333;48.322;14.340;2023-03-03T03:43:22;2.50;94.20
8591;DHT22;4333;48.322;14.340;2023-03-03T03:45:48;2.40;93.60
8591;DHT22;4333;48.322;14.340;2023-03-03T03:48:14;2.40;93.40
8591;DHT22;4333;48.322;14.340;2023-03-03T03:50:41;2.30;93.30
8591;DHT22;4333;48.322;14.340;2023-03-03T03:53:07;2.20;93.30
8591;DHT22;4333;48.322;14.340;2023-03-03T03:55:33;2.20;94.50
8591;DHT22;4333;48.322;14.340;2023-03-03T03:57:58;2.10;95.40
8591;DHT22;4333;48.322;14.340;2023-03-03T04:00:25;2.10;95.80
8591;DHT22;4333;48.322;14.340;2023-03-03T04:02:50;2.00;95.90
8591;DHT22;4333;48.322;14.340;2023-03-03T04:05:17;2.00;96.40
8591;DHT22;4333;48.322;14.340;2023-03-03T04:07:42;2.00;96.50
8591;DHT22;4333;48.322;14.340;2023-03-03T04:10:09;1.90;96.80
8591;DHT22;4333;48.322;14.340;2023-03-03T04:12:35;1.90;96.90
8591;DHT22;4333;48.322;14.340;2023-03-03T04:15:11;1.90;97.10
8591;DHT22;4333;48.322;14.340;2023-03-03T04:17:38;1.90;99.20
8591;DHT22;4333;48.322;14.340;2023-03-03T04:20:05;1.90;99.90
8591;DHT22;4333;48.322;14.340;2023-03-03T04:22:31;1.80;99.90
8591;DHT22;4333;48.322;14.340;2023-03-03T04:25:04;1.80;99.90
8591;DHT22;4333;48.322;14.340;2023-03-03T04:27:34;1.90;99.90
8591;DHT22;4333;48.322;14.340;2023-03-03T04:30:01;1.90;99.90
8591;DHT22;4333;48.322;14.340;2023-03-03T04:32:27;1.90;99.90
8591;DHT22;4333;48.322;14.340;2023-03-03T04:34:53;1.80;99.80
8591;DHT22;4333;48.322;14.340;2023-03-03T04:37:19;1.70;99.90
8591;DHT22;4333;48.322;14.340;2023-03-03T04:39:45;1.60;99.90
8591;DHT22;4333;48.322;14.340;2023-03-03T04:42:11;1.60;99.90
8591;DHT22;4333;48.322;14.340;2023-03-03T04:44:36;1.60;99.90
8591;DHT22;4333;48.322;14.340;2023-03-03T04:47:02;1.50;99.90
8591;DHT22;4333;48.322;14.340;2023-03-03T04:49:30;1.50;99.90
8591;DHT22;4333;48.322;14.340;2023-03-03T04:51:56;1.50;99.90
8591;DHT22;4333;48.322;14.340;2023-03-03T04:54:22;1.50;99.90
8591;DHT22;4333;48.322;14.340;2023-03-03T04:56:47;1.50;99.90
8591;DHT22;4333;48.322;14.340;2023-03-03T04:59:13;1.40;99.90
8591;DHT22;4333;48.322;14.340;2023-03-03T05:01:42;1.40;99.90
8591;DHT22;4333;48.322;14.340;2023-03-03T05:04:08;1.40;99.90
8591;DHT22;4333;48.322;14.340;2023-03-03T05:06:33;1.40;99.90
8591;DHT22;4333;48.322;14.340;2023-03-03T05:09:02;1.40;99.90
8591;DHT22;4333;48.322;14.340;2023-03-03T05:11:28;1.40;99.90
8591;DHT22;4333;48.322;14.340;2023-03-03T05:13:54;1.30;99.90
8591;DHT22;4333;48.322;14.340;2023-03-03T05:16:20;1.20;99.90
8591;DHT22;4333;48.322;14.340;2023-03-03T05:18:46;1.10;99.90
8591;DHT22;4333;48.322;14.340;2023-03-03T05:21:13;1.10;99.90
8591;DHT22;4333;48.322;14.340;2023-03-03T05:23:38;1.10;99.90
8591;DHT22;4333;48.322;14.340;2023-03-03T05:26:07;0.90;99.90
8591;DHT22;4333;48.322;14.340;2023-03-03T05:28:33;0.90;99.90
8591;DHT22;4333;48.322;14.340;2023-03-03T05:30:59;0.90;99.90
8591;DHT22;4333;48.322;14.340;2023-03-03T05:33:24;0.90;99.90
8591;DHT22;4333;48.322;14.340;2023-03-03T05:35:54;0.80;99.90
8591;DHT22;4333;48.322;14.340;2023-03-03T05:38:21;0.70;99.90
8591;DHT22;4333;48.322;14.340;2023-03-03T05:40:47;0.70;99.90
8591;DHT22;4333;48.322;14.340;2023-03-03T05:43:12;0.60;99.90
8591;DHT22;4333;48.322;14.340;2023-03-03T05:45:38;0.70;99.90
8591;DHT22;4333;48.322;14.340;2023-03-03T05:48:04;0.60;99.90
8591;DHT22;4333;48.322;14.340;2023-03-03T05:50:30;0.60;99.90
8591;DHT22;4333;48.322;14.340;2023-03-03T05:52:56;0.60;99.90
8591;DHT22;4333;48.322;14.340;2023-03-03T05:55:22;0.70;99.90
8591;DHT22;4333;48.322;14.340;2023-03-03T05:57:48;0.70;99.90
8591;DHT22;4333;48.322;14.340;2023-03-03T06:00:14;0.60;99.90
8591;DHT22;4333;48.322;14.340;2023-03-03T06:02:41;0.50;99.90
8591;DHT22;4333;48.322;14.340;2023-03-03T06:05:07;0.60;99.90
8591;DHT22;4333;48.322;14.340;2023-03-03T06:07:33;0.60;99.90
8591;DHT22;4333;48.322;14.340;2023-03-03T06:09:59;0.60;99.90
8591;DHT22;4333;48.322;14.340;2023-03-03T06:12:25;0.70;99.90
8591;DHT22;4333;48.322;14.340;2023-03-03T06:14:51;0.70;99.90
8591;DHT22;4333;48.322;14.340;2023-03-03T06:17:16;0.70;99.90
8591;DHT22;4333;48.322;14.340;2023-03-03T06:19:45;0.70;99.90
8591;DHT22;4333;48.322;14.340;2023-03-03T06:22:14;0.90;99.90
8591;DHT22;4333;48.322;14.340;2023-03-03T06:24:40;0.90;99.90
8591;DHT22;4333;48.322;14.340;2023-03-03T06:27:06;1.10;99.90
8591;DHT22;4333;48.322;14.340;2023-03-03T06:29:32;1.10;99.90
8591;DHT22;4333;48.322;14.340;2023-03-03T06:31:57;1.30;99.90
8591;DHT22;4333;48.322;14.340;2023-03-03T06:34:23;1.50;99.90
8591;DHT22;4333;48.322;14.340;2023-03-03T06:36:49;1.60;99.90
8591;DHT22;4333;48.322;14.340;2023-03-03T06:39:17;1.60;99.90
8591;DHT22;4333;48.322;14.340;2023-03-03T06:41:43;1.60;99.90
8591;DHT22;4333;48.322;14.340;2023-03-03T06:44:08;1.60;99.90
8591;DHT22;4333;48.322;14.340;2023-03-03T06:46:36;1.80;99.90
8591;DHT22;4333;48.322;14.340;2023-03-03T06:49:01;2.00;99.90
8591;DHT22;4333;48.322;14.340;2023-03-03T06:51:38;2.10;99.90
8591;DHT22;4333;48.322;14.340;2023-03-03T06:54:15;2.30;99.90
8591;DHT22;4333;48.322;14.340;2023-03-03T06:56:42;2.30;98.00
8591;DHT22;4333;48.322;14.340;2023-03-03T06:59:17;2.40;97.50
8591;DHT22;4333;48.322;14.340;2023-03-03T07:01:45;2.40;95.90
8591;DHT22;4333;48.322;14.340;2023-03-03T07:06:37;2.20;95.90
8591;DHT22;4333;48.322;14.340;2023-03-03T07:09:19;2.10;97.70
8591;DHT22;4333;48.322;14.340;2023-03-03T07:11:48;2.30;99.60
8591;DHT22;4333;48.322;14.340;2023-03-03T07:14:17;3.10;99.90
8591;DHT22;4333;48.322;14.340;2023-03-03T07:16:43;4.30;97.30
8591;DHT22;4333;48.322;14.340;2023-03-03T07:19:33;6.00;78.90
8591;DHT22;4333;48.322;14.340;2023-03-03T07:22:07;8.00;52.10
8591;DHT22;4333;48.322;14.340;2023-03-03T07:24:37;9.30;35.00
8591;DHT22;4333;48.322;14.340;2023-03-03T07:29:33;11.30;21.60
8591;DHT22;4333;48.322;14.340;2023-03-03T07:32:00;11.10;7.50
8591;DHT22;4333;48.322;14.340;2023-03-03T07:37:01;10.60;3.00
8591;DHT22;4333;48.322;14.340;2023-03-03T07:44:36;10.10;1.00
8591;DHT22;4333;48.322;14.340;2023-03-03T07:47:19;10.20;1.00
8591;DHT22;4333;48.322;14.340;2023-03-03T07:49:48;10.60;1.00
8591;DHT22;4333;48.322;14.340;2023-03-03T07:52:39;11.20;1.00
8591;DHT22;4333;48.322;14.340;2023-03-03T07:55:25;12.30;1.00
8591;DHT22;4333;48.322;14.340;2023-03-03T07:57:54;13.60;1.00
8591;DHT22;4333;48.322;14.340;2023-03-03T08:03:01;14.20;1.00
8591;DHT22;4333;48.322;14.340;2023-03-03T08:05:35;14.80;1.00
8591;DHT22;4333;48.322;14.340;2023-03-03T08:08:30;15.20;1.00
8591;DHT22;4333;48.322;14.340;2023-03-03T08:11:02;14.50;1.00
8591;DHT22;4333;48.322;14.340;2023-03-03T08:16:37;11.00;1.00
8591;DHT22;4333;48.322;14.340;2023-03-03T08:19:05;10.60;1.00
8591;DHT22;4333;48.322;14.340;2023-03-03T08:21:32;10.80;1.00
8591;DHT22;4333;48.322;14.340;2023-03-03T08:23:58;11.70;1.00
8591;DHT22;4333;48.322;14.340;2023-03-03T08:26:25;11.50;1.00
8591;DHT22;4333;48.322;14.340;2023-03-03T08:28:51;11.70;1.00
8591;DHT22;4333;48.322;14.340;2023-03-03T08:31:18;11.40;1.00
8591;DHT22;4333;48.322;14.340;2023-03-03T08:33:45;11.50;1.00
8591;DHT22;4333;48.322;14.340;2023-03-03T08:36:13;12.10;1.00
8591;DHT22;4333;48.322;14.340;2023-03-03T08:38:39;11.30;1.00
8591;DHT22;4333;48.322;14.340;2023-03-03T08:41:08;10.60;1.00
8591;DHT22;4333;48.322;14.340;2023-03-03T08:50:19;10.20;1.00
8591;DHT22;4333;48.322;14.340;2023-03-03T08:52:44;10.50;1.00
8591;DHT22;4333;48.322;14.340;2023-03-03T08:55:14;9.60;1.00
8591;DHT22;4333;48.322;14.340;2023-03-03T08:57:39;10.50;1.00
8591;DHT22;4333;48.322;14.340;2023-03-03T09:00:08;11.00;1.00
8591;DHT22;4333;48.322;14.340;2023-03-03T09:02:35;11.30;1.00
8591;DHT22;4333;48.322;14.340;2023-03-03T09:05:00;11.90;1.00
8591;DHT22;4333;48.322;14.340;2023-03-03T09:07:26;12.40;1.00
8591;DHT22;4333;48.322;14.340;2023-03-03T09:09:52;12.90;1.00
8591;DHT22;4333;48.322;14.340;2023-03-03T09:12:56;12.90;1.00
8591;DHT22;4333;48.322;14.340;2023-03-03T09:15:32;13.10;1.00
8591;DHT22;4333;48.322;14.340;2023-03-03T09:20:40;12.20;1.00
8591;DHT22;4333;48.322;14.340;2023-03-03T09:23:35;12.60;1.00
8591;DHT22;4333;48.322;14.340;2023-03-03T09:26:24;12.40;1.00
8591;DHT22;4333;48.322;14.340;2023-03-03T09:29:22;12.20;1.00
8591;DHT22;4333;48.322;14.340;2023-03-03T09:36:49;11.00;1.00
8591;DHT22;4333;48.322;14.340;2023-03-03T09:39:26;10.60;1.00
8591;DHT22;4333;48.322;14.340;2023-03-03T09:50:20;11.70;1.00
8591;DHT22;4333;48.322;14.340;2023-03-03T10:00:49;13.50;1.00
8591;DHT22;4333;48.322;14.340;2023-03-03T10:06:28;14.10;1.00
8591;DHT22;4333;48.322;14.340;2023-03-03T10:20:24;11.10;1.00
8591;DHT22;4333;48.322;14.340;2023-03-03T10:31:06;11.40;1.00
8591;DHT22;4333;48.322;14.340;2023-03-03T10:39:02;12.40;1.00
8591;DHT22;4333;48.322;14.340;2023-03-03T10:42:10;12.20;1.00
8591;DHT22;4333;48.322;14.340;2023-03-03T10:58:39;12.40;1.00
8591;DHT22;4333;48.322;14.340;2023-03-03T11:12:18;11.80;1.00
8591;DHT22;4333;48.322;14.340;2023-03-03T11:15:28;11.00;1.00
8591;DHT22;4333;48.322;14.340;2023-03-03T11:25:52;13.60;1.00
8591;DHT22;4333;48.322;14.340;2023-03-03T11:28:27;13.80;1.00
8591;DHT22;4333;48.322;14.340;2023-03-03T11:39:19;12.20;1.00
8591;DHT22;4333;48.322;14.340;2023-03-03T11:42:23;11.60;1.00
8591;DHT22;4333;48.322;14.340;2023-03-03T11:45:04;11.20;1.00
8591;DHT22;4333;48.322;14.340;2023-03-03T11:47:56;11.30;1.00
8591;DHT22;4333;48.322;14.340;2023-03-03T11:50:25;11.40;1.00
8591;DHT22;4333;48.322;14.340;2023-03-03T11:56:33;12.30;1.00
8591;DHT22;4333;48.322;14.340;2023-03-03T11:59:33;13.50;1.00
8591;DHT22;4333;48.322;14.340;2023-03-03T12:04:55;13.90;1.00
8591;DHT22;4333;48.322;14.340;2023-03-03T12:10:18;12.90;1.00
8591;DHT22;4333;48.322;14.340;2023-03-03T12:12:53;12.60;1.00
8591;DHT22;4333;48.322;14.340;2023-03-03T12:15:42;12.60;1.00
8591;DHT22;4333;48.322;14.340;2023-03-03T12:24:01;11.60;1.00
8591;DHT22;4333;48.322;14.340;2023-03-03T12:30:26;13.50;1.00
8591;DHT22;4333;48.322;14.340;2023-03-03T12:40:57;14.30;1.00
8591;DHT22;4333;48.322;14.340;2023-03-03T12:46:18;14.10;1.00
8591;DHT22;4333;48.322;14.340;2023-03-03T12:48:46;13.80;1.00
8591;DHT22;4333;48.322;14.340;2023-03-03T12:56:54;14.00;1.00
8591;DHT22;4333;48.322;14.340;2023-03-03T13:08:23;15.20;1.00
8591;DHT22;4333;48.322;14.340;2023-03-03T13:16:49;13.50;1.00
8591;DHT22;4333;48.322;14.340;2023-03-03T13:19:27;13.20;1.00
8591;DHT22;4333;48.322;14.340;2023-03-03T13:22:07;13.20;1.00
8591;DHT22;4333;48.322;14.340;2023-03-03T13:24:51;13.80;1.00
8591;DHT22;4333;48.322;14.340;2023-03-03T13:27:23;13.80;1.00
8591;DHT22;4333;48.322;14.340;2023-03-03T13:30:03;13.20;1.00
8591;DHT22;4333;48.322;14.340;2023-03-03T13:35:31;13.10;1.00
8591;DHT22;4333;48.322;14.340;2023-03-03T13:37:58;13.10;1.00
8591;DHT22;4333;48.322;14.340;2023-03-03T13:40:38;13.80;1.00
8591;DHT22;4333;48.322;14.340;2023-03-03T13:43:23;14.20;1.00
8591;DHT22;4333;48.322;14.340;2023-03-03T13:57:18;13.70;1.00
8591;DHT22;4333;48.322;14.340;2023-03-03T14:00:06;14.00;1.00
8591;DHT22;4333;48.322;14.340;2023-03-03T14:02:59;14.40;1.00
8591;DHT22;4333;48.322;14.340;2023-03-03T14:05:43;14.30;1.00
8591;DHT22;4333;48.322;14.340;2023-03-03T14:11:05;14.20;1.00
8591;DHT22;4333;48.322;14.340;2023-03-03T14:13:43;14.10;1.00
8591;DHT22;4333;48.322;14.340;2023-03-03T14:19:26;13.40;1.00
8591;DHT22;4333;48.322;14.340;2023-03-03T14:24:26;13.60;1.00
8591;DHT22;4333;48.322;14.340;2023-03-03T14:26:56;14.00;1.00
8591;DHT22;4333;48.322;14.340;2023-03-03T14:31:56;14.20;1.00
8591;DHT22;4333;48.322;14.340;2023-03-03T14:36:48;13.40;1.00
8591;DHT22;4333;48.322;14.340;2023-03-03T14:39:34;13.10;1.00
8591;DHT22;4333;48.322;14.340;2023-03-03T14:42:30;13.20;1.00
8591;DHT22;4333;48.322;14.340;2023-03-03T14:45:00;13.40;1.00
8591;DHT22;4333;48.322;14.340;2023-03-03T14:47:27;13.50;1.00
8591;DHT22;4333;48.322;14.340;2023-03-03T14:49:57;13.60;1.00
8591;DHT22;4333;48.322;14.340;2023-03-03T14:52:27;13.70;1.00
8591;DHT22;4333;48.322;14.340;2023-03-03T14:54:58;13.90;1.00
8591;DHT22;4333;48.322;14.340;2023-03-03T15:05:22;13.80;1.00
8591;DHT22;4333;48.322;14.340;2023-03-03T15:18:29;13.30;1.00
8591;DHT22;4333;48.322;14.340;2023-03-03T15:21:06;13.10;1.00
8591;DHT22;4333;48.322;14.340;2023-03-03T15:24:02;13.10;1.00
8591;DHT22;4333;48.322;14.340;2023-03-03T15:26:37;12.80;1.00
8591;DHT22;4333;48.322;14.340;2023-03-03T15:35:02;12.60;1.00
8591;DHT22;4333;48.322;14.340;2023-03-03T15:40:28;12.50;1.00
8591;DHT22;4333;48.322;14.340;2023-03-03T15:54:04;12.20;1.00
8591;DHT22;4333;48.322;14.340;2023-03-03T16:04:36;11.80;1.00
8591;DHT22;4333;48.322;14.340;2023-03-03T16:12:43;11.40;1.00
8591;DHT22;4333;48.322;14.340;2023-03-03T16:15:51;11.30;1.00
8591;DHT22;4333;48.322;14.340;2023-03-03T16:21:36;11.10;1.00
8591;DHT22;4333;48.322;14.340;2023-03-03T16:30:27;11.00;1.00
8591;DHT22;4333;48.322;14.340;2023-03-03T16:33:26;10.80;1.00
8591;DHT22;4333;48.322;14.340;2023-03-03T16:36:10;10.80;1.00
8591;DHT22;4333;48.322;14.340;2023-03-03T16:38:43;10.80;1.00
8591;DHT22;4333;48.322;14.340;2023-03-03T16:41:20;10.60;1.00
8591;DHT22;4333;48.322;14.340;2023-03-03T16:46:37;10.50;1.00
8591;DHT22;4333;48.322;14.340;2023-03-03T16:52:16;10.40;1.00
8591;DHT22;4333;48.322;14.340;2023-03-03T16:57:52;10.20;1.00
8591;DHT22;4333;48.322;14.340;2023-03-03T17:00:22;10.20;1.00
8591;DHT22;4333;48.322;14.340;2023-03-03T17:06:09;10.10;1.00
8591;DHT22;4333;48.322;14.340;2023-03-03T17:08:51;10.00;1.00
8591;DHT22;4333;48.322;14.340;2023-03-03T17:11:47;10.00;1.00
8591;DHT22;4333;48.322;14.340;2023-03-03T17:14:56;9.80;1.00
8591;DHT22;4333;48.322;14.340;2023-03-03T17:17:32;9.60;1.00
8591;DHT22;4333;48.322;14.340;2023-03-03T17:28:52;8.40;8.60
8591;DHT22;4333;48.322;14.340;2023-03-03T17:35:06;8.10;15.70
8591;DHT22;4333;48.322;14.340;2023-03-03T17:40:16;8.10;18.60
8591;DHT22;4333;48.322;14.340;2023-03-03T17:45:23;8.00;21.20
8591;DHT22;4333;48.322;14.340;2023-03-03T17:51:04;7.90;23.20
8591;DHT22;4333;48.322;14.340;2023-03-03T18:14:27;7.30;31.80
8591;DHT22;4333;48.322;14.340;2023-03-03T18:22:32;7.20;34.20
8591;DHT22;4333;48.322;14.340;2023-03-03T18:25:15;6.90;36.20
8591;DHT22;4333;48.322;14.340;2023-03-03T18:27:42;6.80;37.90
8591;DHT22;4333;48.322;14.340;2023-03-03T18:30:25;6.70;38.30
8591;DHT22;4333;48.322;14.340;2023-03-03T19:02:20;5.40;66.50
8591;DHT22;4333;48.322;14.340;2023-03-03T19:05:18;5.30;63.10
8591;DHT22;4333;48.322;14.340;2023-03-03T19:10:58;5.00;69.60
8591;DHT22;4333;48.322;14.340;2023-03-03T19:13:37;5.10;69.20
8591;DHT22;4333;48.322;14.340;2023-03-03T19:16:06;5.10;67.60
8591;DHT22;4333;48.322;14.340;2023-03-03T19:21:32;4.90;61.80
8591;DHT22;4333;48.322;14.340;2023-03-03T19:32:50;4.60;57.80
8591;DHT22;4333;48.322;14.340;2023-03-03T19:40:53;4.20;59.00
8591;DHT22;4333;48.322;14.340;2023-03-03T19:46:24;4.50;57.40
8591;DHT22;4333;48.322;14.340;2023-03-03T19:54:45;4.30;55.40
8591;DHT22;4333;48.322;14.340;2023-03-03T19:57:44;4.30;57.90
8591;DHT22;4333;48.322;14.340;2023-03-03T20:00:26;4.40;55.70
8591;DHT22;4333;48.322;14.340;2023-03-03T20:10:49;4.20;57.40
8591;DHT22;4333;48.322;14.340;2023-03-03T20:16:16;4.10;63.90
8591;DHT22;4333;48.322;14.340;2023-03-03T21:02:30;3.50;95.10
8591;DHT22;4333;48.322;14.340;2023-03-03T21:05:17;3.70;96.70
8591;DHT22;4333;48.322;14.340;2023-03-03T21:08:01;3.80;95.30
8591;DHT22;4333;48.322;14.340;2023-03-03T21:10:32;3.80;92.10
8591;DHT22;4333;48.322;14.340;2023-03-03T21:13:26;3.60;92.20
8591;DHT22;4333;48.322;14.340;2023-03-03T21:16:01;3.50;95.30
8591;DHT22;4333;48.322;14.340;2023-03-03T21:18:27;3.40;96.20
8591;DHT22;4333;48.322;14.340;2023-03-03T21:20:53;3.40;96.00
8591;DHT22;4333;48.322;14.340;2023-03-03T21:23:20;3.30;94.90
8591;DHT22;4333;48.322;14.340;2023-03-03T21:25:52;3.30;95.10
8591;DHT22;4333;48.322;14.340;2023-03-03T21:28:32;3.20;96.00
8591;DHT22;4333;48.322;14.340;2023-03-03T21:33:54;3.10;96.20
8591;DHT22;4333;48.322;14.340;2023-03-03T21:39:31;3.10;99.80
8591;DHT22;4333;48.322;14.340;2023-03-03T21:42:00;3.10;99.90
8591;DHT22;4333;48.322;14.340;2023-03-03T21:44:43;3.10;99.90
8591;DHT22;4333;48.322;14.340;2023-03-03T21:47:28;3.10;99.90
8591;DHT22;4333;48.322;14.340;2023-03-03T21:49:56;3.00;99.90
8591;DHT22;4333;48.322;14.340;2023-03-03T21:52:22;3.00;99.90
8591;DHT22;4333;48.322;14.340;2023-03-03T21:54:50;2.90;99.90
8591;DHT22;4333;48.322;14.340;2023-03-03T21:57:18;2.90;99.90
8591;DHT22;4333;48.322;14.340;2023-03-03T21:59:46;2.90;99.90
8591;DHT22;4333;48.322;14.340;2023-03-03T22:02:12;2.90;99.90
8591;DHT22;4333;48.322;14.340;2023-03-03T22:04:38;2.80;99.90
8591;DHT22;4333;48.322;14.340;2023-03-03T22:07:07;2.80;99.90
8591;DHT22;4333;48.322;14.340;2023-03-03T22:09:33;2.70;99.90
8591;DHT22;4333;48.322;14.340;2023-03-03T22:11:59;2.70;99.90
8591;DHT22;4333;48.322;14.340;2023-03-03T22:14:25;2.70;99.90
8591;DHT22;4333;48.322;14.340;2023-03-03T22:16:53;2.70;99.90
8591;DHT22;4333;48.322;14.340;2023-03-03T22:19:19;2.70;99.90
8591;DHT22;4333;48.322;14.340;2023-03-03T22:21:45;2.70;99.90
8591;DHT22;4333;48.322;14.340;2023-03-03T22:24:14;2.60;99.90
8591;DHT22;4333;48.322;14.340;2023-03-03T22:26:40;2.60;99.90
8591;DHT22;4333;48.322;14.340;2023-03-03T22:29:05;2.50;99.90
8591;DHT22;4333;48.322;14.340;2023-03-03T22:31:31;2.50;99.90
8591;DHT22;4333;48.322;14.340;2023-03-03T22:33:57;2.50;99.90
8591;DHT22;4333;48.322;14.340;2023-03-03T22:36:23;2.40;99.90
8591;DHT22;4333;48.322;14.340;2023-03-03T22:38:49;2.40;99.90
8591;DHT22;4333;48.322;14.340;2023-03-03T22:41:15;2.40;99.90
8591;DHT22;4333;48.322;14.340;2023-03-03T22:43:40;2.30;99.90
8591;DHT22;4333;48.322;14.340;2023-03-03T22:46:06;2.30;99.90
8591;DHT22;4333;48.322;14.340;2023-03-03T22:48:35;2.20;99.90
8591;DHT22;4333;48.322;14.340;2023-03-03T22:51:01;2.20;99.90
8591;DHT22;4333;48.322;14.340;2023-03-03T22:53:26;2.20;99.90
8591;DHT22;4333;48.322;14.340;2023-03-03T22:55:54;2.10;99.90
8591;DHT22;4333;48.322;14.340;2023-03-03T22:58:20;2.10;99.90
8591;DHT22;4333;48.322;14.340;2023-03-03T23:00:50;2.00;99.90
8591;DHT22;4333;48.322;14.340;2023-03-03T23:03:19;1.90;99.90
8591;DHT22;4333;48.322;14.340;2023-03-03T23:05:45;1.80;99.90
8591;DHT22;4333;48.322;14.340;2023-03-03T23:08:14;1.90;99.90
8591;DHT22;4333;48.322;14.340;2023-03-03T23:10:40;2.00;99.90
8591;DHT22;4333;48.322;14.340;2023-03-03T23:13:07;2.10;99.90
8591;DHT22;4333;48.322;14.340;2023-03-03T23:15:33;2.20;99.90
8591;DHT22;4333;48.322;14.340;2023-03-03T23:17:59;2.10;99.90
8591;DHT22;4333;48.322;14.340;2023-03-03T23:20:26;2.00;99.90
8591;DHT22;4333;48.322;14.340;2023-03-03T23:22:52;2.00;99.90
8591;DHT22;4333;48.322;14.340;2023-03-03T23:25:19;1.90;99.90
8591;DHT22;4333;48.322;14.340;2023-03-03T23:27:45;1.90;99.90
8591;DHT22;4333;48.322;14.340;2023-03-03T23:30:14;1.90;99.90
8591;DHT22;4333;48.322;14.340;2023-03-03T23:32:40;1.80;99.90
8591;DHT22;4333;48.322;14.340;2023-03-03T23:35:06;1.80;99.90
8591;DHT22;4333;48.322;14.340;2023-03-03T23:37:34;1.70;99.90
8591;DHT22;4333;48.322;14.340;2023-03-03T23:39:59;1.60;99.90
8591;DHT22;4333;48.322;14.340;2023-03-03T23:42:25;1.50;99.90
8591;DHT22;4333;48.322;14.340;2023-03-03T23:44:52;1.50;99.90
8591;DHT22;4333;48.322;14.340;2023-03-03T23:47:19;1.40;99.90
8591;DHT22;4333;48.322;14.340;2023-03-03T23:49:44;1.40;99.90
8591;DHT22;4333;48.322;14.340;2023-03-03T23:52:10;1.40;99.90
8591;DHT22;4333;48.322;14.340;2023-03-03T23:54:36;1.40;99.90
8591;DHT22;4333;48.322;14.340;2023-03-03T23:57:05;1.40;99.90
8591;DHT22;4333;48.322;14.340;2023-03-03T23:59:33;1.30;99.90
